sensor_id;sensor_type;location;lat;lon;timestamp;temperature;humidity
6758;DHT22;3416;53.074;8.822;2023-03-14T00:00:36;11.60;99.90
6758;DHT22;3416;53.074;8.822;2023-03-14T00:03:03;11.60;99.90
6758;DHT22;3416;53.074;8.822;2023-03-14T00:05:29;11.70;99.90
6758;DHT22;3416;53.074;8.822;2023-03-14T00:07:57;11.70;99.90
6758;DHT22;3416;53.074;8.822;2023-03-14T00:10:24;11.70;99.90
6758;DHT22;3416;53.074;8.822;2023-03-14T00:12:50;11.70;99.90
6758;DHT22;3416;53.074;8.822;2023-03-14T00:15:17;11.70;99.90
6758;DHT22;3416;53.074;8.822;2023-03-14T00:17:46;11.70;99.90
6758;DHT22;3416;53.074;8.822;2023-03-14T00:20:14;11.60;99.90
6758;DHT22;3416;53.074;8.822;2023-03-14T00:22:41;11.60;99.90
6758;DHT22;3416;53.074;8.822;2023-03-14T00:25:10;11.60;99.90
6758;DHT22;3416;53.074;8.822;2023-03-14T00:27:37;11.60;99.90
6758;DHT22;3416;53.074;8.822;2023-03-14T00:30:05;11.60;99.90
6758;DHT22;3416;53.074;8.822;2023-03-14T00:32:33;11.60;99.90
6758;DHT22;3416;53.074;8.822;2023-03-14T00:35:02;11.60;99.90
6758;DHT22;3416;53.074;8.822;2023-03-14T00:37:29;11.70;99.90
6758;DHT22;3416;53.074;8.822;2023-03-14T00:39:56;11.60;99.90
6758;DHT22;3416;53.074;8.822;2023-03-14T00:42:24;11.60;99.90
6758;DHT22;3416;53.074;8.822;2023-03-14T00:44:51;11.70;99.90
6758;DHT22;3416;53.074;8.822;2023-03-14T00:47:18;11.60;99.90
6758;DHT22;3416;53.074;8.822;2023-03-14T00:49:45;11.60;99.90
6758;DHT22;3416;53.074;8.822;2023-03-14T00:52:14;11.60;99.90
6758;DHT22;3416;53.074;8.822;2023-03-14T00:54:40;11.60;99.90
6758;DHT22;3416;53.074;8.822;2023-03-14T00:57:07;11.60;99.90
6758;DHT22;3416;53.074;8.822;2023-03-14T00:59:34;11.60;99.90
6758;DHT22;3416;53.074;8.822;2023-03-14T01:02:01;11.60;99.90
6758;DHT22;3416;53.074;8.822;2023-03-14T01:04:28;11.50;99.90
6758;DHT22;3416;53.074;8.822;2023-03-14T01:07:02;11.40;99.90
6758;DHT22;3416;53.074;8.822;2023-03-14T01:09:31;11.40;99.90
6758;DHT22;3416;53.074;8.822;2023-03-14T01:11:58;11.40;99.90
6758;DHT22;3416;53.074;8.822;2023-03-14T01:14:25;11.40;99.90
6758;DHT22;3416;53.074;8.822;2023-03-14T01:16:52;11.40;99.90
6758;DHT22;3416;53.074;8.822;2023-03-14T01:19:18;11.40;99.90
6758;DHT22;3416;53.074;8.822;2023-03-14T01:21:45;11.50;99.90
6758;DHT22;3416;53.074;8.822;2023-03-14T01:24:12;11.40;99.90
6758;DHT22;3416;53.074;8.822;2023-03-14T01:26:41;11.40;99.90
6758;DHT22;3416;53.074;8.822;2023-03-14T01:29:08;11.40;99.90
6758;DHT22;3416;53.074;8.822;2023-03-14T01:31:34;11.40;99.90
6758;DHT22;3416;53.074;8.822;2023-03-14T01:34:02;11.40;99.90
6758;DHT22;3416;53.074;8.822;2023-03-14T01:36:29;11.40;99.90
6758;DHT22;3416;53.074;8.822;2023-03-14T01:38:55;11.50;99.90
6758;DHT22;3416;53.074;8.822;2023-03-14T01:41:24;11.40;99.90
6758;DHT22;3416;53.074;8.822;2023-03-14T01:43:54;11.50;99.90
6758;DHT22;3416;53.074;8.822;2023-03-14T01:46:36;11.50;99.90
6758;DHT22;3416;53.074;8.822;2023-03-14T01:49:11;11.40;99.90
6758;DHT22;3416;53.074;8.822;2023-03-14T01:51:44;11.40;99.90
6758;DHT22;3416;53.074;8.822;2023-03-14T01:54:16;11.50;99.90
6758;DHT22;3416;53.074;8.822;2023-03-14T01:56:47;11.40;99.90
6758;DHT22;3416;53.074;8.822;2023-03-14T01:59:19;11.40;99.90
6758;DHT22;3416;53.074;8.822;2023-03-14T02:01:47;11.40;99.90
6758;DHT22;3416;53.074;8.822;2023-03-14T02:04:17;11.50;99.90
6758;DHT22;3416;53.074;8.822;2023-03-14T02:06:50;11.50;99.90
6758;DHT22;3416;53.074;8.822;2023-03-14T02:09:19;11.50;99.90
6758;DHT22;3416;53.074;8.822;2023-03-14T02:11:46;11.50;99.90
6758;DHT22;3416;53.074;8.822;2023-03-14T02:14:24;11.50;99.90
6758;DHT22;3416;53.074;8.822;2023-03-14T02:16:55;11.50;99.90
6758;DHT22;3416;53.074;8.822;2023-03-14T02:19:31;11.60;99.90
6758;DHT22;3416;53.074;8.822;2023-03-14T02:22:05;11.60;99.90
6758;DHT22;3416;53.074;8.822;2023-03-14T02:24:40;11.50;99.90
6758;DHT22;3416;53.074;8.822;2023-03-14T02:27:12;11.60;99.90
6758;DHT22;3416;53.074;8.822;2023-03-14T02:29:48;11.50;99.90
6758;DHT22;3416;53.074;8.822;2023-03-14T02:32:17;11.50;99.90
6758;DHT22;3416;53.074;8.822;2023-03-14T02:34:49;11.60;99.90
6758;DHT22;3416;53.074;8.822;2023-03-14T02:37:19;11.70;99.90
6758;DHT22;3416;53.074;8.822;2023-03-14T02:39:49;11.70;99.90
6758;DHT22;3416;53.074;8.822;2023-03-14T02:42:17;11.70;99.90
6758;DHT22;3416;53.074;8.822;2023-03-14T02:44:55;11.70;99.90
6758;DHT22;3416;53.074;8.822;2023-03-14T02:47:29;11.70;99.90
6758;DHT22;3416;53.074;8.822;2023-03-14T02:50:01;11.80;99.90
6758;DHT22;3416;53.074;8.822;2023-03-14T02:52:28;11.80;99.90
6758;DHT22;3416;53.074;8.822;2023-03-14T02:54:55;11.80;99.90
6758;DHT22;3416;53.074;8.822;2023-03-14T02:57:24;11.80;99.90
6758;DHT22;3416;53.074;8.822;2023-03-14T02:59:51;11.80;99.90
6758;DHT22;3416;53.074;8.822;2023-03-14T03:02:18;11.90;99.90
6758;DHT22;3416;53.074;8.822;2023-03-14T03:04:45;11.80;99.90
6758;DHT22;3416;53.074;8.822;2023-03-14T03:07:13;11.90;99.90
6758;DHT22;3416;53.074;8.822;2023-03-14T03:09:40;11.80;99.90
6758;DHT22;3416;53.074;8.822;2023-03-14T03:12:07;11.90;99.90
6758;DHT22;3416;53.074;8.822;2023-03-14T03:14:35;11.90;99.90
6758;DHT22;3416;53.074;8.822;2023-03-14T03:17:03;11.90;99.90
6758;DHT22;3416;53.074;8.822;2023-03-14T03:19:30;11.90;99.90
6758;DHT22;3416;53.074;8.822;2023-03-14T03:21:57;11.90;99.90
6758;DHT22;3416;53.074;8.822;2023-03-14T03:24:24;11.90;99.90
6758;DHT22;3416;53.074;8.822;2023-03-14T03:26:51;11.90;99.90
6758;DHT22;3416;53.074;8.822;2023-03-14T03:29:19;12.00;99.90
6758;DHT22;3416;53.074;8.822;2023-03-14T03:31:48;12.00;99.90
6758;DHT22;3416;53.074;8.822;2023-03-14T03:34:15;12.00;99.90
6758;DHT22;3416;53.074;8.822;2023-03-14T03:36:42;12.00;99.90
6758;DHT22;3416;53.074;8.822;2023-03-14T03:39:09;11.90;99.90
6758;DHT22;3416;53.074;8.822;2023-03-14T03:41:35;11.80;99.90
6758;DHT22;3416;53.074;8.822;2023-03-14T03:44:03;11.60;99.90
6758;DHT22;3416;53.074;8.822;2023-03-14T03:46:31;11.40;99.90
6758;DHT22;3416;53.074;8.822;2023-03-14T03:49:00;11.40;99.90
6758;DHT22;3416;53.074;8.822;2023-03-14T03:51:27;11.40;99.90
6758;DHT22;3416;53.074;8.822;2023-03-14T03:53:56;11.30;99.90
6758;DHT22;3416;53.074;8.822;2023-03-14T03:56:22;11.30;99.90
6758;DHT22;3416;53.074;8.822;2023-03-14T03:58:51;11.40;99.90
6758;DHT22;3416;53.074;8.822;2023-03-14T04:01:17;11.30;99.90
6758;DHT22;3416;53.074;8.822;2023-03-14T04:03:45;11.20;99.90
6758;DHT22;3416;53.074;8.822;2023-03-14T04:06:14;11.20;99.90
6758;DHT22;3416;53.074;8.822;2023-03-14T04:08:41;11.10;99.90
6758;DHT22;3416;53.074;8.822;2023-03-14T04:11:09;11.10;99.90
6758;DHT22;3416;53.074;8.822;2023-03-14T04:13:37;11.10;99.90
6758;DHT22;3416;53.074;8.822;2023-03-14T04:16:11;11.20;99.90
6758;DHT22;3416;53.074;8.822;2023-03-14T04:18:41;11.20;99.90
6758;DHT22;3416;53.074;8.822;2023-03-14T04:21:07;11.20;99.90
6758;DHT22;3416;53.074;8.822;2023-03-14T04:23:36;11.20;99.90
6758;DHT22;3416;53.074;8.822;2023-03-14T04:26:03;11.20;99.90
6758;DHT22;3416;53.074;8.822;2023-03-14T04:28:31;11.30;99.90
6758;DHT22;3416;53.074;8.822;2023-03-14T04:30:58;11.30;99.90
6758;DHT22;3416;53.074;8.822;2023-03-14T04:33:25;11.30;99.90
6758;DHT22;3416;53.074;8.822;2023-03-14T04:35:54;11.30;99.90
6758;DHT22;3416;53.074;8.822;2023-03-14T04:38:21;11.30;99.90
6758;DHT22;3416;53.074;8.822;2023-03-14T04:40:50;11.30;99.90
6758;DHT22;3416;53.074;8.822;2023-03-14T04:43:17;11.30;99.90
6758;DHT22;3416;53.074;8.822;2023-03-14T04:45:44;11.40;99.90
6758;DHT22;3416;53.074;8.822;2023-03-14T04:48:11;11.30;99.90
6758;DHT22;3416;53.074;8.822;2023-03-14T04:50:39;11.20;99.90
6758;DHT22;3416;53.074;8.822;2023-03-14T04:53:06;11.20;99.90
6758;DHT22;3416;53.074;8.822;2023-03-14T04:55:33;11.20;99.90
6758;DHT22;3416;53.074;8.822;2023-03-14T04:58:03;11.10;99.90
6758;DHT22;3416;53.074;8.822;2023-03-14T05:00:30;11.20;99.90
6758;DHT22;3416;53.074;8.822;2023-03-14T05:02:57;11.10;99.90
6758;DHT22;3416;53.074;8.822;2023-03-14T05:05:25;11.00;99.90
6758;DHT22;3416;53.074;8.822;2023-03-14T05:07:52;11.00;99.90
6758;DHT22;3416;53.074;8.822;2023-03-14T05:10:19;10.90;99.90
6758;DHT22;3416;53.074;8.822;2023-03-14T05:12:46;10.70;99.90
6758;DHT22;3416;53.074;8.822;2023-03-14T05:15:14;10.70;99.90
6758;DHT22;3416;53.074;8.822;2023-03-14T05:17:41;10.60;99.90
6758;DHT22;3416;53.074;8.822;2023-03-14T05:20:09;10.60;99.90
6758;DHT22;3416;53.074;8.822;2023-03-14T05:22:38;10.50;99.90
6758;DHT22;3416;53.074;8.822;2023-03-14T05:25:06;10.50;99.90
6758;DHT22;3416;53.074;8.822;2023-03-14T05:27:34;10.50;99.90
6758;DHT22;3416;53.074;8.822;2023-03-14T05:30:01;10.50;99.90
6758;DHT22;3416;53.074;8.822;2023-03-14T05:32:30;10.50;99.90
6758;DHT22;3416;53.074;8.822;2023-03-14T05:34:57;10.60;99.90
6758;DHT22;3416;53.074;8.822;2023-03-14T05:37:24;10.50;99.90
6758;DHT22;3416;53.074;8.822;2023-03-14T05:39:52;10.50;99.90
6758;DHT22;3416;53.074;8.822;2023-03-14T05:42:19;10.50;99.90
6758;DHT22;3416;53.074;8.822;2023-03-14T05:44:46;10.50;99.90
6758;DHT22;3416;53.074;8.822;2023-03-14T05:47:13;10.40;99.90
6758;DHT22;3416;53.074;8.822;2023-03-14T05:49:41;10.40;99.90
6758;DHT22;3416;53.074;8.822;2023-03-14T05:52:08;10.40;99.90
6758;DHT22;3416;53.074;8.822;2023-03-14T05:54:35;10.40;99.90
6758;DHT22;3416;53.074;8.822;2023-03-14T05:57:02;10.40;99.90
6758;DHT22;3416;53.074;8.822;2023-03-14T05:59:30;10.40;99.90
6758;DHT22;3416;53.074;8.822;2023-03-14T06:01:56;10.40;99.90
6758;DHT22;3416;53.074;8.822;2023-03-14T06:04:25;10.50;99.90
6758;DHT22;3416;53.074;8.822;2023-03-14T06:06:53;10.50;99.90
6758;DHT22;3416;53.074;8.822;2023-03-14T06:09:20;10.50;99.90
6758;DHT22;3416;53.074;8.822;2023-03-14T06:11:48;10.60;99.90
6758;DHT22;3416;53.074;8.822;2023-03-14T06:14:16;10.60;99.90
6758;DHT22;3416;53.074;8.822;2023-03-14T06:16:43;10.60;99.90
6758;DHT22;3416;53.074;8.822;2023-03-14T06:19:10;10.60;99.90
6758;DHT22;3416;53.074;8.822;2023-03-14T06:21:37;10.70;99.90
6758;DHT22;3416;53.074;8.822;2023-03-14T06:24:05;10.80;99.90
6758;DHT22;3416;53.074;8.822;2023-03-14T06:26:33;10.80;99.90
6758;DHT22;3416;53.074;8.822;2023-03-14T06:29:00;10.90;99.90
6758;DHT22;3416;53.074;8.822;2023-03-14T06:31:29;11.00;99.90
6758;DHT22;3416;53.074;8.822;2023-03-14T06:33:56;11.00;99.90
6758;DHT22;3416;53.074;8.822;2023-03-14T06:36:24;11.10;99.90
6758;DHT22;3416;53.074;8.822;2023-03-14T06:38:51;11.20;99.90
6758;DHT22;3416;53.074;8.822;2023-03-14T06:41:20;11.10;99.90
6758;DHT22;3416;53.074;8.822;2023-03-14T06:43:49;11.00;99.90
6758;DHT22;3416;53.074;8.822;2023-03-14T06:46:16;10.90;99.90
6758;DHT22;3416;53.074;8.822;2023-03-14T06:48:43;11.00;99.90
6758;DHT22;3416;53.074;8.822;2023-03-14T06:51:10;11.00;99.90
6758;DHT22;3416;53.074;8.822;2023-03-14T06:53:37;11.00;99.90
6758;DHT22;3416;53.074;8.822;2023-03-14T06:56:05;11.00;99.90
6758;DHT22;3416;53.074;8.822;2023-03-14T06:58:33;11.00;99.90
6758;DHT22;3416;53.074;8.822;2023-03-14T07:01:00;11.00;99.90
6758;DHT22;3416;53.074;8.822;2023-03-14T07:03:27;11.00;99.90
6758;DHT22;3416;53.074;8.822;2023-03-14T07:05:55;10.90;99.90
6758;DHT22;3416;53.074;8.822;2023-03-14T07:08:23;11.00;99.90
6758;DHT22;3416;53.074;8.822;2023-03-14T07:10:50;11.10;99.90
6758;DHT22;3416;53.074;8.822;2023-03-14T07:13:17;11.10;99.90
6758;DHT22;3416;53.074;8.822;2023-03-14T07:15:46;11.20;99.90
6758;DHT22;3416;53.074;8.822;2023-03-14T07:18:13;11.10;99.90
6758;DHT22;3416;53.074;8.822;2023-03-14T07:20:40;11.00;99.90
6758;DHT22;3416;53.074;8.822;2023-03-14T07:23:08;11.30;99.90
6758;DHT22;3416;53.074;8.822;2023-03-14T07:25:35;11.30;99.90
6758;DHT22;3416;53.074;8.822;2023-03-14T07:28:02;11.40;99.90
6758;DHT22;3416;53.074;8.822;2023-03-14T07:30:28;11.50;99.90
6758;DHT22;3416;53.074;8.822;2023-03-14T07:32:57;11.60;99.90
6758;DHT22;3416;53.074;8.822;2023-03-14T07:35:24;11.80;99.90
6758;DHT22;3416;53.074;8.822;2023-03-14T07:37:52;12.20;99.90
6758;DHT22;3416;53.074;8.822;2023-03-14T07:40:19;12.90;99.90
6758;DHT22;3416;53.074;8.822;2023-03-14T07:42:46;13.20;99.90
6758;DHT22;3416;53.074;8.822;2023-03-14T07:45:13;14.00;99.90
6758;DHT22;3416;53.074;8.822;2023-03-14T07:47:41;14.30;99.90
6758;DHT22;3416;53.074;8.822;2023-03-14T07:50:10;14.30;99.90
6758;DHT22;3416;53.074;8.822;2023-03-14T07:52:37;14.40;99.90
6758;DHT22;3416;53.074;8.822;2023-03-14T07:55:05;14.20;99.90
6758;DHT22;3416;53.074;8.822;2023-03-14T07:57:32;14.20;99.90
6758;DHT22;3416;53.074;8.822;2023-03-14T07:59:59;13.40;99.90
6758;DHT22;3416;53.074;8.822;2023-03-14T08:02:26;13.20;99.90
6758;DHT22;3416;53.074;8.822;2023-03-14T08:04:53;13.10;99.90
6758;DHT22;3416;53.074;8.822;2023-03-14T08:07:21;12.80;99.90
6758;DHT22;3416;53.074;8.822;2023-03-14T08:09:48;12.60;99.90
6758;DHT22;3416;53.074;8.822;2023-03-14T08:12:16;12.40;99.90
6758;DHT22;3416;53.074;8.822;2023-03-14T08:14:49;12.40;99.90
6758;DHT22;3416;53.074;8.822;2023-03-14T08:17:16;12.10;99.90
6758;DHT22;3416;53.074;8.822;2023-03-14T08:19:43;12.10;99.90
6758;DHT22;3416;53.074;8.822;2023-03-14T08:22:10;11.90;99.90
6758;DHT22;3416;53.074;8.822;2023-03-14T08:24:39;12.00;99.90
6758;DHT22;3416;53.074;8.822;2023-03-14T08:27:06;11.90;99.90
6758;DHT22;3416;53.074;8.822;2023-03-14T08:29:33;11.80;99.90
6758;DHT22;3416;53.074;8.822;2023-03-14T08:32:00;11.90;99.90
6758;DHT22;3416;53.074;8.822;2023-03-14T08:34:27;11.90;99.90
6758;DHT22;3416;53.074;8.822;2023-03-14T08:36:54;11.90;99.90
6758;DHT22;3416;53.074;8.822;2023-03-14T08:39:22;11.90;99.90
6758;DHT22;3416;53.074;8.822;2023-03-14T08:41:51;12.00;99.90
6758;DHT22;3416;53.074;8.822;2023-03-14T08:44:18;11.70;99.90
6758;DHT22;3416;53.074;8.822;2023-03-14T08:46:46;11.60;99.90
6758;DHT22;3416;53.074;8.822;2023-03-14T08:49:13;11.50;99.90
6758;DHT22;3416;53.074;8.822;2023-03-14T08:51:42;11.50;99.90
6758;DHT22;3416;53.074;8.822;2023-03-14T08:54:10;11.30;99.90
6758;DHT22;3416;53.074;8.822;2023-03-14T08:56:37;11.30;99.90
6758;DHT22;3416;53.074;8.822;2023-03-14T08:59:06;11.30;99.90
6758;DHT22;3416;53.074;8.822;2023-03-14T09:01:33;11.20;99.90
6758;DHT22;3416;53.074;8.822;2023-03-14T09:04:00;11.20;99.90
6758;DHT22;3416;53.074;8.822;2023-03-14T09:06:27;11.30;99.90
6758;DHT22;3416;53.074;8.822;2023-03-14T09:08:54;11.20;99.90
6758;DHT22;3416;53.074;8.822;2023-03-14T09:11:21;11.20;99.90
6758;DHT22;3416;53.074;8.822;2023-03-14T09:13:48;11.40;99.90
6758;DHT22;3416;53.074;8.822;2023-03-14T09:16:17;11.30;99.90
6758;DHT22;3416;53.074;8.822;2023-03-14T09:18:44;11.30;99.90
6758;DHT22;3416;53.074;8.822;2023-03-14T09:21:11;10.80;99.90
6758;DHT22;3416;53.074;8.822;2023-03-14T09:23:39;10.20;99.90
6758;DHT22;3416;53.074;8.822;2023-03-14T09:26:06;9.80;99.90
6758;DHT22;3416;53.074;8.822;2023-03-14T09:28:33;9.50;99.90
6758;DHT22;3416;53.074;8.822;2023-03-14T09:31:06;9.20;99.90
6758;DHT22;3416;53.074;8.822;2023-03-14T09:33:35;8.90;99.90
6758;DHT22;3416;53.074;8.822;2023-03-14T09:36:03;8.70;99.90
6758;DHT22;3416;53.074;8.822;2023-03-14T09:38:31;8.50;99.90
6758;DHT22;3416;53.074;8.822;2023-03-14T09:41:00;8.30;99.90
6758;DHT22;3416;53.074;8.822;2023-03-14T09:43:30;8.10;99.90
6758;DHT22;3416;53.074;8.822;2023-03-14T09:46:01;8.00;99.90
6758;DHT22;3416;53.074;8.822;2023-03-14T09:48:32;7.90;99.90
6758;DHT22;3416;53.074;8.822;2023-03-14T09:51:05;7.90;99.90
6758;DHT22;3416;53.074;8.822;2023-03-14T09:53:37;7.80;99.90
6758;DHT22;3416;53.074;8.822;2023-03-14T09:56:12;7.70;99.90
6758;DHT22;3416;53.074;8.822;2023-03-14T09:58:45;7.50;99.90
6758;DHT22;3416;53.074;8.822;2023-03-14T10:01:17;7.40;99.90
6758;DHT22;3416;53.074;8.822;2023-03-14T10:03:47;7.10;99.90
6758;DHT22;3416;53.074;8.822;2023-03-14T10:06:15;7.10;99.90
6758;DHT22;3416;53.074;8.822;2023-03-14T10:08:43;7.00;99.90
6758;DHT22;3416;53.074;8.822;2023-03-14T10:11:14;7.00;99.90
6758;DHT22;3416;53.074;8.822;2023-03-14T10:13:52;6.70;99.90
6758;DHT22;3416;53.074;8.822;2023-03-14T10:16:29;6.90;99.90
6758;DHT22;3416;53.074;8.822;2023-03-14T10:19:02;6.80;99.90
6758;DHT22;3416;53.074;8.822;2023-03-14T10:21:36;6.70;99.90
6758;DHT22;3416;53.074;8.822;2023-03-14T10:24:26;6.50;99.90
6758;DHT22;3416;53.074;8.822;2023-03-14T10:26:55;6.50;99.90
6758;DHT22;3416;53.074;8.822;2023-03-14T10:29:24;6.50;99.90
6758;DHT22;3416;53.074;8.822;2023-03-14T10:31:53;6.50;99.90
6758;DHT22;3416;53.074;8.822;2023-03-14T10:34:25;6.60;99.90
6758;DHT22;3416;53.074;8.822;2023-03-14T10:36:55;6.60;99.90
6758;DHT22;3416;53.074;8.822;2023-03-14T10:39:30;6.70;99.90
6758;DHT22;3416;53.074;8.822;2023-03-14T10:42:05;6.60;99.90
6758;DHT22;3416;53.074;8.822;2023-03-14T10:44:34;6.50;99.90
6758;DHT22;3416;53.074;8.822;2023-03-14T10:47:03;6.50;99.90
6758;DHT22;3416;53.074;8.822;2023-03-14T10:49:33;6.60;99.90
6758;DHT22;3416;53.074;8.822;2023-03-14T10:52:17;6.70;99.90
6758;DHT22;3416;53.074;8.822;2023-03-14T10:54:47;6.80;99.90
6758;DHT22;3416;53.074;8.822;2023-03-14T10:57:15;6.90;99.90
6758;DHT22;3416;53.074;8.822;2023-03-14T10:59:43;6.90;99.90
6758;DHT22;3416;53.074;8.822;2023-03-14T11:02:37;6.90;99.90
6758;DHT22;3416;53.074;8.822;2023-03-14T11:05:18;7.00;99.90
6758;DHT22;3416;53.074;8.822;2023-03-14T11:07:51;6.90;99.90
6758;DHT22;3416;53.074;8.822;2023-03-14T11:10:24;7.10;99.90
6758;DHT22;3416;53.074;8.822;2023-03-14T11:13:04;7.10;99.90
6758;DHT22;3416;53.074;8.822;2023-03-14T11:15:40;7.20;99.90
6758;DHT22;3416;53.074;8.822;2023-03-14T11:21:15;7.40;99.90
6758;DHT22;3416;53.074;8.822;2023-03-14T11:23:52;7.30;99.90
6758;DHT22;3416;53.074;8.822;2023-03-14T11:26:28;7.20;99.90
6758;DHT22;3416;53.074;8.822;2023-03-14T11:28:58;7.10;99.90
6758;DHT22;3416;53.074;8.822;2023-03-14T11:31:30;7.10;99.90
6758;DHT22;3416;53.074;8.822;2023-03-14T11:34:01;7.20;99.90
6758;DHT22;3416;53.074;8.822;2023-03-14T11:36:37;7.40;99.90
6758;DHT22;3416;53.074;8.822;2023-03-14T11:39:13;7.50;99.90
6758;DHT22;3416;53.074;8.822;2023-03-14T11:41:42;7.60;99.90
6758;DHT22;3416;53.074;8.822;2023-03-14T11:44:16;7.70;99.90
6758;DHT22;3416;53.074;8.822;2023-03-14T11:46:50;7.70;99.90
6758;DHT22;3416;53.074;8.822;2023-03-14T11:49:29;8.00;99.90
6758;DHT22;3416;53.074;8.822;2023-03-14T11:52:00;8.10;99.90
6758;DHT22;3416;53.074;8.822;2023-03-14T11:54:37;8.30;99.90
6758;DHT22;3416;53.074;8.822;2023-03-14T11:57:11;8.60;99.90
6758;DHT22;3416;53.074;8.822;2023-03-14T11:59:46;8.90;99.90
6758;DHT22;3416;53.074;8.822;2023-03-14T12:02:19;9.00;99.90
6758;DHT22;3416;53.074;8.822;2023-03-14T12:05:14;9.00;99.90
6758;DHT22;3416;53.074;8.822;2023-03-14T12:08:00;8.70;99.90
6758;DHT22;3416;53.074;8.822;2023-03-14T12:10:37;8.50;99.90
6758;DHT22;3416;53.074;8.822;2023-03-14T12:13:04;8.50;99.90
6758;DHT22;3416;53.074;8.822;2023-03-14T12:15:39;8.60;99.90
6758;DHT22;3416;53.074;8.822;2023-03-14T12:18:20;8.50;99.90
6758;DHT22;3416;53.074;8.822;2023-03-14T12:20:51;8.60;99.90
6758;DHT22;3416;53.074;8.822;2023-03-14T12:23:20;8.60;99.90
6758;DHT22;3416;53.074;8.822;2023-03-14T12:26:07;8.60;99.90
6758;DHT22;3416;53.074;8.822;2023-03-14T12:28:34;8.40;99.90
6758;DHT22;3416;53.074;8.822;2023-03-14T12:34:02;8.20;99.90
6758;DHT22;3416;53.074;8.822;2023-03-14T12:36:51;7.90;99.90
6758;DHT22;3416;53.074;8.822;2023-03-14T12:39:24;7.80;99.90
6758;DHT22;3416;53.074;8.822;2023-03-14T12:42:04;8.00;99.90
6758;DHT22;3416;53.074;8.822;2023-03-14T12:44:40;8.20;99.90
6758;DHT22;3416;53.074;8.822;2023-03-14T12:50:15;8.50;99.90
6758;DHT22;3416;53.074;8.822;2023-03-14T12:52:54;8.50;99.90
6758;DHT22;3416;53.074;8.822;2023-03-14T12:55:32;8.40;99.90
6758;DHT22;3416;53.074;8.822;2023-03-14T12:58:07;8.50;99.90
6758;DHT22;3416;53.074;8.822;2023-03-14T13:00:39;8.50;99.90
6758;DHT22;3416;53.074;8.822;2023-03-14T13:03:18;8.40;99.90
6758;DHT22;3416;53.074;8.822;2023-03-14T13:05:55;8.30;99.90
6758;DHT22;3416;53.074;8.822;2023-03-14T13:08:37;8.40;99.90
6758;DHT22;3416;53.074;8.822;2023-03-14T13:11:10;8.40;99.90
6758;DHT22;3416;53.074;8.822;2023-03-14T13:13:45;8.50;99.90
6758;DHT22;3416;53.074;8.822;2023-03-14T13:16:18;8.70;99.90
6758;DHT22;3416;53.074;8.822;2023-03-14T13:18:59;8.80;99.90
6758;DHT22;3416;53.074;8.822;2023-03-14T13:21:27;8.90;99.90
6758;DHT22;3416;53.074;8.822;2023-03-14T13:24:03;8.80;97.60
6758;DHT22;3416;53.074;8.822;2023-03-14T13:26:35;8.70;98.10
6758;DHT22;3416;53.074;8.822;2023-03-14T13:29:15;8.50;97.80
6758;DHT22;3416;53.074;8.822;2023-03-14T13:31:44;8.40;98.60
6758;DHT22;3416;53.074;8.822;2023-03-14T13:34:11;8.50;98.90
6758;DHT22;3416;53.074;8.822;2023-03-14T13:36:38;8.50;99.10
6758;DHT22;3416;53.074;8.822;2023-03-14T13:39:13;8.40;99.90
6758;DHT22;3416;53.074;8.822;2023-03-14T13:41:41;8.30;99.90
6758;DHT22;3416;53.074;8.822;2023-03-14T13:44:15;8.30;99.80
6758;DHT22;3416;53.074;8.822;2023-03-14T13:46:45;8.40;99.90
6758;DHT22;3416;53.074;8.822;2023-03-14T13:49:19;8.40;99.30
6758;DHT22;3416;53.074;8.822;2023-03-14T13:51:48;8.40;99.10
6758;DHT22;3416;53.074;8.822;2023-03-14T13:54:16;8.40;99.20
6758;DHT22;3416;53.074;8.822;2023-03-14T13:56:43;8.60;99.80
6758;DHT22;3416;53.074;8.822;2023-03-14T13:59:22;8.60;99.40
6758;DHT22;3416;53.074;8.822;2023-03-14T14:01:50;8.60;98.40
6758;DHT22;3416;53.074;8.822;2023-03-14T14:04:20;8.50;96.50
6758;DHT22;3416;53.074;8.822;2023-03-14T14:06:52;8.40;96.10
6758;DHT22;3416;53.074;8.822;2023-03-14T14:09:22;8.60;95.10
6758;DHT22;3416;53.074;8.822;2023-03-14T14:11:53;8.70;93.40
6758;DHT22;3416;53.074;8.822;2023-03-14T14:14:26;8.80;91.80
6758;DHT22;3416;53.074;8.822;2023-03-14T14:16:54;8.90;90.60
6758;DHT22;3416;53.074;8.822;2023-03-14T14:19:26;8.90;90.10
6758;DHT22;3416;53.074;8.822;2023-03-14T14:21:54;9.00;90.50
6758;DHT22;3416;53.074;8.822;2023-03-14T14:24:24;9.00;90.70
6758;DHT22;3416;53.074;8.822;2023-03-14T14:26:52;9.10;91.10
6758;DHT22;3416;53.074;8.822;2023-03-14T14:29:26;8.90;92.10
6758;DHT22;3416;53.074;8.822;2023-03-14T14:32:10;8.90;92.70
6758;DHT22;3416;53.074;8.822;2023-03-14T14:34:42;8.60;92.00
6758;DHT22;3416;53.074;8.822;2023-03-14T14:37:19;8.50;92.70
6758;DHT22;3416;53.074;8.822;2023-03-14T14:39:47;8.30;93.10
6758;DHT22;3416;53.074;8.822;2023-03-14T14:42:16;8.20;93.60
6758;DHT22;3416;53.074;8.822;2023-03-14T14:44:49;8.10;94.70
6758;DHT22;3416;53.074;8.822;2023-03-14T14:47:20;8.10;93.50
6758;DHT22;3416;53.074;8.822;2023-03-14T14:49:48;7.90;93.40
6758;DHT22;3416;53.074;8.822;2023-03-14T14:52:17;7.90;94.30
6758;DHT22;3416;53.074;8.822;2023-03-14T14:54:46;7.90;93.90
6758;DHT22;3416;53.074;8.822;2023-03-14T14:57:19;7.80;93.80
6758;DHT22;3416;53.074;8.822;2023-03-14T14:59:49;7.80;93.50
6758;DHT22;3416;53.074;8.822;2023-03-14T15:02:31;7.70;93.60
6758;DHT22;3416;53.074;8.822;2023-03-14T15:05:01;7.80;93.70
6758;DHT22;3416;53.074;8.822;2023-03-14T15:07:28;7.80;94.00
6758;DHT22;3416;53.074;8.822;2023-03-14T15:09:55;7.90;93.70
6758;DHT22;3416;53.074;8.822;2023-03-14T15:12:22;7.90;93.00
6758;DHT22;3416;53.074;8.822;2023-03-14T15:14:51;7.90;91.50
6758;DHT22;3416;53.074;8.822;2023-03-14T15:17:20;7.80;91.90
6758;DHT22;3416;53.074;8.822;2023-03-14T15:19:47;7.90;92.20
6758;DHT22;3416;53.074;8.822;2023-03-14T15:22:14;7.90;92.40
6758;DHT22;3416;53.074;8.822;2023-03-14T15:24:41;8.00;92.20
6758;DHT22;3416;53.074;8.822;2023-03-14T15:27:13;8.10;92.30
6758;DHT22;3416;53.074;8.822;2023-03-14T15:29:41;8.30;92.20
6758;DHT22;3416;53.074;8.822;2023-03-14T15:32:12;8.30;91.80
6758;DHT22;3416;53.074;8.822;2023-03-14T15:34:40;8.30;91.90
6758;DHT22;3416;53.074;8.822;2023-03-14T15:37:10;8.30;91.80
6758;DHT22;3416;53.074;8.822;2023-03-14T15:39:38;8.20;92.10
6758;DHT22;3416;53.074;8.822;2023-03-14T15:42:05;8.20;92.40
6758;DHT22;3416;53.074;8.822;2023-03-14T15:44:33;8.10;92.30
6758;DHT22;3416;53.074;8.822;2023-03-14T15:47:00;8.20;92.70
6758;DHT22;3416;53.074;8.822;2023-03-14T15:49:29;8.10;92.60
6758;DHT22;3416;53.074;8.822;2023-03-14T15:51:56;8.10;93.00
6758;DHT22;3416;53.074;8.822;2023-03-14T15:54:23;8.10;93.10
6758;DHT22;3416;53.074;8.822;2023-03-14T15:56:54;8.00;93.40
6758;DHT22;3416;53.074;8.822;2023-03-14T15:59:21;8.00;93.30
6758;DHT22;3416;53.074;8.822;2023-03-14T16:01:48;7.80;92.80
6758;DHT22;3416;53.074;8.822;2023-03-14T16:04:15;7.70;92.90
6758;DHT22;3416;53.074;8.822;2023-03-14T16:06:44;7.60;93.40
6758;DHT22;3416;53.074;8.822;2023-03-14T16:09:15;7.60;92.90
6758;DHT22;3416;53.074;8.822;2023-03-14T16:11:46;7.60;92.50
6758;DHT22;3416;53.074;8.822;2023-03-14T16:14:15;7.70;92.50
6758;DHT22;3416;53.074;8.822;2023-03-14T16:16:42;7.60;91.90
6758;DHT22;3416;53.074;8.822;2023-03-14T16:19:09;7.70;91.90
6758;DHT22;3416;53.074;8.822;2023-03-14T16:21:36;7.60;91.90
6758;DHT22;3416;53.074;8.822;2023-03-14T16:24:06;7.60;91.50
6758;DHT22;3416;53.074;8.822;2023-03-14T16:26:33;7.50;91.90
6758;DHT22;3416;53.074;8.822;2023-03-14T16:29:02;7.50;92.30
6758;DHT22;3416;53.074;8.822;2023-03-14T16:31:30;7.50;92.50
6758;DHT22;3416;53.074;8.822;2023-03-14T16:34:01;7.50;92.80